sensor_id;sensor_type;location;lat;lon;timestamp;P1;durP1;ratioP1;P2;durP2;ratioP2
25365;SDS011;13315;48.274;-1.900;2023-10-19T00:00:34;10.45;;;9.73;;
25365;SDS011;13315;48.274;-1.900;2023-10-19T00:05:36;10.50;;;9.52;;
25365;SDS011;13315;48.274;-1.900;2023-10-19T00:08:03;10.27;;;9.25;;
25365;SDS011;13315;48.274;-1.900;2023-10-19T00:10:44;10.20;;;9.17;;
25365;SDS011;13315;48.274;-1.900;2023-10-19T00:13:13;19.40;;;10.30;;
25365;SDS011;13315;48.274;-1.900;2023-10-19T00:15:40;10.57;;;9.60;;
25365;SDS011;13315;48.274;-1.900;2023-10-19T00:18:11;10.05;;;9.05;;
25365;SDS011;13315;48.274;-1.900;2023-10-19T00:20:40;15.50;;;11.00;;
25365;SDS011;13315;48.274;-1.900;2023-10-19T00:23:06;9.55;;;8.95;;
25365;SDS011;13315;48.274;-1.900;2023-10-19T00:25:35;9.93;;;9.27;;
25365;SDS011;13315;48.274;-1.900;2023-10-19T00:28:06;10.75;;;9.85;;
25365;SDS011;13315;48.274;-1.900;2023-10-19T00:30:32;9.45;;;8.75;;
25365;SDS011;13315;48.274;-1.900;2023-10-19T00:33:04;10.38;;;9.73;;
25365;SDS011;13315;48.274;-1.900;2023-10-19T00:35:40;14.90;;;10.13;;
25365;SDS011;13315;48.274;-1.900;2023-10-19T00:38:13;9.65;;;9.15;;
25365;SDS011;13315;48.274;-1.900;2023-10-19T00:40:57;18.65;;;11.88;;
25365;SDS011;13315;48.274;-1.900;2023-10-19T00:43:37;14.35;;;10.60;;
25365;SDS011;13315;48.274;-1.900;2023-10-19T00:46:14;13.00;;;8.50;;
25365;SDS011;13315;48.274;-1.900;2023-10-19T00:48:49;9.18;;;8.57;;
25365;SDS011;13315;48.274;-1.900;2023-10-19T00:51:16;9.45;;;8.82;;
25365;SDS011;13315;48.274;-1.900;2023-10-19T00:53:55;9.93;;;9.32;;
25365;SDS011;13315;48.274;-1.900;2023-10-19T00:56:22;11.40;;;8.07;;
25365;SDS011;13315;48.274;-1.900;2023-10-19T00:58:49;8.73;;;8.07;;
25365;SDS011;13315;48.274;-1.900;2023-10-19T01:01:19;10.98;;;7.78;;
25365;SDS011;13315;48.274;-1.900;2023-10-19T01:03:49;8.55;;;8.05;;
25365;SDS011;13315;48.274;-1.900;2023-10-19T01:06:21;9.50;;;8.60;;
25365;SDS011;13315;48.274;-1.900;2023-10-19T01:08:47;9.30;;;8.50;;
25365;SDS011;13315;48.274;-1.900;2023-10-19T01:13:44;7.38;;;7.05;;
25365;SDS011;13315;48.274;-1.900;2023-10-19T01:16:12;7.72;;;7.05;;
25365;SDS011;13315;48.274;-1.900;2023-10-19T01:18:46;9.07;;;8.35;;
25365;SDS011;13315;48.274;-1.900;2023-10-19T01:21:12;7.25;;;6.75;;
25365;SDS011;13315;48.274;-1.900;2023-10-19T01:23:38;9.25;;;8.27;;
25365;SDS011;13315;48.274;-1.900;2023-10-19T01:26:04;15.63;;;9.10;;
25365;SDS011;13315;48.274;-1.900;2023-10-19T01:28:34;9.50;;;8.80;;
25365;SDS011;13315;48.274;-1.900;2023-10-19T01:31:08;7.88;;;7.28;;
25365;SDS011;13315;48.274;-1.900;2023-10-19T01:33:39;8.45;;;7.60;;
25365;SDS011;13315;48.274;-1.900;2023-10-19T01:36:05;9.43;;;8.55;;
25365;SDS011;13315;48.274;-1.900;2023-10-19T01:38:39;10.10;;;9.13;;
25365;SDS011;13315;48.274;-1.900;2023-10-19T01:41:06;8.77;;;8.18;;
25365;SDS011;13315;48.274;-1.900;2023-10-19T01:43:40;8.73;;;8.23;;
25365;SDS011;13315;48.274;-1.900;2023-10-19T01:46:08;8.95;;;8.05;;
25365;SDS011;13315;48.274;-1.900;2023-10-19T01:48:38;12.63;;;11.60;;
25365;SDS011;13315;48.274;-1.900;2023-10-19T01:51:06;17.83;;;16.42;;
25365;SDS011;13315;48.274;-1.900;2023-10-19T01:53:35;17.30;;;16.15;;
25365;SDS011;13315;48.274;-1.900;2023-10-19T01:56:04;28.38;;;26.52;;
25365;SDS011;13315;48.274;-1.900;2023-10-19T01:58:31;29.45;;;27.83;;
25365;SDS011;13315;48.274;-1.900;2023-10-19T02:01:01;28.98;;;27.52;;
25365;SDS011;13315;48.274;-1.900;2023-10-19T02:03:32;29.20;;;27.00;;
25365;SDS011;13315;48.274;-1.900;2023-10-19T02:05:58;32.50;;;30.80;;
25365;SDS011;13315;48.274;-1.900;2023-10-19T02:08:25;31.70;;;29.63;;
25365;SDS011;13315;48.274;-1.900;2023-10-19T02:10:54;31.13;;;29.42;;
25365;SDS011;13315;48.274;-1.900;2023-10-19T02:13:22;31.13;;;29.38;;
25365;SDS011;13315;48.274;-1.900;2023-10-19T02:15:48;28.73;;;27.33;;
25365;SDS011;13315;48.274;-1.900;2023-10-19T02:18:16;29.13;;;27.47;;
25365;SDS011;13315;48.274;-1.900;2023-10-19T02:20:42;33.22;;;31.52;;
25365;SDS011;13315;48.274;-1.900;2023-10-19T02:23:13;32.90;;;31.30;;
25365;SDS011;13315;48.274;-1.900;2023-10-19T02:25:39;32.03;;;30.42;;
25365;SDS011;13315;48.274;-1.900;2023-10-19T02:28:07;30.38;;;28.88;;
25365;SDS011;13315;48.274;-1.900;2023-10-19T02:30:34;30.00;;;28.50;;
25365;SDS011;13315;48.274;-1.900;2023-10-19T02:33:00;30.02;;;28.10;;
25365;SDS011;13315;48.274;-1.900;2023-10-19T02:35:28;30.40;;;28.90;;
25365;SDS011;13315;48.274;-1.900;2023-10-19T02:37:55;29.85;;;28.35;;
25365;SDS011;13315;48.274;-1.900;2023-10-19T02:40:23;31.58;;;29.98;;
25365;SDS011;13315;48.274;-1.900;2023-10-19T02:42:50;26.58;;;25.17;;
25365;SDS011;13315;48.274;-1.900;2023-10-19T02:45:17;30.70;;;29.20;;
25365;SDS011;13315;48.274;-1.900;2023-10-19T02:47:46;29.08;;;27.48;;
25365;SDS011;13315;48.274;-1.900;2023-10-19T02:50:12;28.98;;;27.58;;
25365;SDS011;13315;48.274;-1.900;2023-10-19T02:52:41;27.90;;;26.50;;
25365;SDS011;13315;48.274;-1.900;2023-10-19T02:55:08;22.70;;;21.60;;
25365;SDS011;13315;48.274;-1.900;2023-10-19T02:57:35;23.27;;;22.08;;
25365;SDS011;13315;48.274;-1.900;2023-10-19T03:00:04;28.10;;;25.35;;
25365;SDS011;13315;48.274;-1.900;2023-10-19T03:02:38;25.48;;;23.90;;
25365;SDS011;13315;48.274;-1.900;2023-10-19T03:05:04;24.40;;;23.20;;
25365;SDS011;13315;48.274;-1.900;2023-10-19T03:07:41;24.02;;;22.83;;
25365;SDS011;13315;48.274;-1.900;2023-10-19T03:10:09;23.65;;;22.45;;
25365;SDS011;13315;48.274;-1.900;2023-10-19T03:12:49;21.30;;;20.20;;
25365;SDS011;13315;48.274;-1.900;2023-10-19T03:15:15;23.45;;;22.27;;
25365;SDS011;13315;48.274;-1.900;2023-10-19T03:17:42;22.85;;;21.75;;
25365;SDS011;13315;48.274;-1.900;2023-10-19T03:20:09;23.38;;;22.17;;
25365;SDS011;13315;48.274;-1.900;2023-10-19T03:22:36;23.90;;;22.70;;
25365;SDS011;13315;48.274;-1.900;2023-10-19T03:25:04;22.85;;;21.75;;
25365;SDS011;13315;48.274;-1.900;2023-10-19T03:27:59;22.70;;;21.60;;
25365;SDS011;13315;48.274;-1.900;2023-10-19T03:30:36;22.02;;;20.92;;
25365;SDS011;13315;48.274;-1.900;2023-10-19T03:33:06;23.13;;;21.88;;
25365;SDS011;13315;48.274;-1.900;2023-10-19T03:35:37;22.23;;;20.95;;
25365;SDS011;13315;48.274;-1.900;2023-10-19T03:38:06;23.83;;;22.63;;
25365;SDS011;13315;48.274;-1.900;2023-10-19T03:40:42;23.27;;;22.08;;
25365;SDS011;13315;48.274;-1.900;2023-10-19T03:43:16;22.83;;;21.63;;
25365;SDS011;13315;48.274;-1.900;2023-10-19T03:45:43;22.88;;;21.77;;
25365;SDS011;13315;48.274;-1.900;2023-10-19T03:48:19;22.95;;;21.80;;
25365;SDS011;13315;48.274;-1.900;2023-10-19T03:50:54;23.88;;;22.13;;
25365;SDS011;13315;48.274;-1.900;2023-10-19T03:53:21;22.20;;;21.10;;
25365;SDS011;13315;48.274;-1.900;2023-10-19T03:55:48;20.05;;;19.05;;
25365;SDS011;13315;48.274;-1.900;2023-10-19T03:58:15;22.98;;;21.40;;
25365;SDS011;13315;48.274;-1.900;2023-10-19T04:00:41;20.83;;;19.65;;
25365;SDS011;13315;48.274;-1.900;2023-10-19T04:03:09;18.52;;;17.35;;
25365;SDS011;13315;48.274;-1.900;2023-10-19T04:05:36;18.02;;;17.13;;
25365;SDS011;13315;48.274;-1.900;2023-10-19T04:08:05;18.00;;;16.63;;
25365;SDS011;13315;48.274;-1.900;2023-10-19T04:10:38;20.85;;;19.75;;
25365;SDS011;13315;48.274;-1.900;2023-10-19T04:13:09;19.65;;;18.55;;
25365;SDS011;13315;48.274;-1.900;2023-10-19T04:15:35;15.80;;;15.00;;
25365;SDS011;13315;48.274;-1.900;2023-10-19T04:18:02;16.02;;;15.02;;
25365;SDS011;13315;48.274;-1.900;2023-10-19T04:20:33;16.35;;;15.55;;
25365;SDS011;13315;48.274;-1.900;2023-10-19T04:23:18;17.45;;;16.27;;
25365;SDS011;13315;48.274;-1.900;2023-10-19T04:25:46;14.35;;;13.65;;
25365;SDS011;13315;48.274;-1.900;2023-10-19T04:28:12;12.90;;;12.20;;
25365;SDS011;13315;48.274;-1.900;2023-10-19T04:30:45;11.30;;;10.60;;
25365;SDS011;13315;48.274;-1.900;2023-10-19T04:33:13;16.27;;;15.07;;
25365;SDS011;13315;48.274;-1.900;2023-10-19T04:35:41;14.65;;;13.95;;
25365;SDS011;13315;48.274;-1.900;2023-10-19T04:38:07;14.00;;;13.10;;
25365;SDS011;13315;48.274;-1.900;2023-10-19T04:40:33;13.25;;;12.45;;
25365;SDS011;13315;48.274;-1.900;2023-10-19T04:43:01;11.80;;;11.20;;
25365;SDS011;13315;48.274;-1.900;2023-10-19T04:45:30;15.48;;;14.73;;
25365;SDS011;13315;48.274;-1.900;2023-10-19T04:47:57;14.68;;;13.93;;
25365;SDS011;13315;48.274;-1.900;2023-10-19T04:50:23;16.77;;;15.98;;
25365;SDS011;13315;48.274;-1.900;2023-10-19T04:52:49;21.75;;;20.65;;
25365;SDS011;13315;48.274;-1.900;2023-10-19T04:55:15;20.45;;;19.45;;
25365;SDS011;13315;48.274;-1.900;2023-10-19T04:57:41;17.10;;;16.30;;
25365;SDS011;13315;48.274;-1.900;2023-10-19T05:00:07;18.05;;;16.98;;
25365;SDS011;13315;48.274;-1.900;2023-10-19T05:02:38;18.00;;;16.73;;
25365;SDS011;13315;48.274;-1.900;2023-10-19T05:05:04;17.55;;;16.55;;
25365;SDS011;13315;48.274;-1.900;2023-10-19T05:07:30;19.88;;;18.77;;
25365;SDS011;13315;48.274;-1.900;2023-10-19T05:09:56;17.75;;;16.50;;
25365;SDS011;13315;48.274;-1.900;2023-10-19T05:12:24;19.45;;;17.92;;
25365;SDS011;13315;48.274;-1.900;2023-10-19T05:14:50;17.98;;;16.77;;
25365;SDS011;13315;48.274;-1.900;2023-10-19T05:17:16;20.40;;;19.35;;
25365;SDS011;13315;48.274;-1.900;2023-10-19T05:19:46;16.75;;;15.77;;
25365;SDS011;13315;48.274;-1.900;2023-10-19T05:22:12;17.08;;;15.70;;
25365;SDS011;13315;48.274;-1.900;2023-10-19T05:24:38;19.80;;;18.42;;
25365;SDS011;13315;48.274;-1.900;2023-10-19T05:27:04;16.73;;;15.93;;
25365;SDS011;13315;48.274;-1.900;2023-10-19T05:29:33;18.73;;;17.83;;
25365;SDS011;13315;48.274;-1.900;2023-10-19T05:31:59;16.02;;;15.23;;
25365;SDS011;13315;48.274;-1.900;2023-10-19T05:34:27;16.15;;;15.27;;
25365;SDS011;13315;48.274;-1.900;2023-10-19T05:36:54;15.88;;;14.98;;
25365;SDS011;13315;48.274;-1.900;2023-10-19T05:39:24;15.55;;;14.65;;
25365;SDS011;13315;48.274;-1.900;2023-10-19T05:41:53;19.45;;;18.05;;
25365;SDS011;13315;48.274;-1.900;2023-10-19T05:44:20;17.65;;;16.75;;
25365;SDS011;13315;48.274;-1.900;2023-10-19T05:46:46;18.65;;;17.65;;
25365;SDS011;13315;48.274;-1.900;2023-10-19T05:49:12;18.08;;;17.17;;
25365;SDS011;13315;48.274;-1.900;2023-10-19T05:51:41;18.98;;;17.52;;
25365;SDS011;13315;48.274;-1.900;2023-10-19T05:54:09;16.20;;;15.32;;
25365;SDS011;13315;48.274;-1.900;2023-10-19T05:56:35;17.40;;;16.50;;
25365;SDS011;13315;48.274;-1.900;2023-10-19T05:59:01;18.75;;;17.40;;
25365;SDS011;13315;48.274;-1.900;2023-10-19T06:01:27;18.52;;;17.60;;
25365;SDS011;13315;48.274;-1.900;2023-10-19T06:03:53;16.85;;;16.00;;
25365;SDS011;13315;48.274;-1.900;2023-10-19T06:06:20;15.13;;;14.32;;
25365;SDS011;13315;48.274;-1.900;2023-10-19T06:08:46;19.80;;;18.38;;
25365;SDS011;13315;48.274;-1.900;2023-10-19T06:11:12;23.02;;;21.55;;
25365;SDS011;13315;48.274;-1.900;2023-10-19T06:13:38;20.02;;;18.80;;
25365;SDS011;13315;48.274;-1.900;2023-10-19T06:16:04;20.75;;;19.10;;
25365;SDS011;13315;48.274;-1.900;2023-10-19T06:18:30;20.10;;;19.10;;
25365;SDS011;13315;48.274;-1.900;2023-10-19T06:20:57;19.33;;;18.33;;
25365;SDS011;13315;48.274;-1.900;2023-10-19T06:23:23;18.92;;;17.60;;
25365;SDS011;13315;48.274;-1.900;2023-10-19T06:25:49;20.05;;;18.50;;
25365;SDS011;13315;48.274;-1.900;2023-10-19T06:28:16;17.90;;;16.58;;
25365;SDS011;13315;48.274;-1.900;2023-10-19T06:30:42;18.50;;;17.35;;
25365;SDS011;13315;48.274;-1.900;2023-10-19T06:33:09;18.35;;;17.33;;
25365;SDS011;13315;48.274;-1.900;2023-10-19T06:35:36;16.10;;;15.30;;
25365;SDS011;13315;48.274;-1.900;2023-10-19T06:38:02;18.88;;;17.65;;
25365;SDS011;13315;48.274;-1.900;2023-10-19T06:40:29;18.80;;;17.80;;
25365;SDS011;13315;48.274;-1.900;2023-10-19T06:42:56;19.75;;;18.75;;
25365;SDS011;13315;48.274;-1.900;2023-10-19T06:45:22;22.65;;;21.52;;
25365;SDS011;13315;48.274;-1.900;2023-10-19T06:47:50;28.53;;;27.13;;
25365;SDS011;13315;48.274;-1.900;2023-10-19T06:50:17;28.15;;;25.83;;
25365;SDS011;13315;48.274;-1.900;2023-10-19T06:52:44;30.45;;;27.77;;
25365;SDS011;13315;48.274;-1.900;2023-10-19T06:55:11;38.38;;;36.47;;
25365;SDS011;13315;48.274;-1.900;2023-10-19T06:57:51;51.75;;;49.03;;
25365;SDS011;13315;48.274;-1.900;2023-10-19T07:00:18;65.93;;;62.53;;
25365;SDS011;13315;48.274;-1.900;2023-10-19T07:02:45;81.38;;;77.07;;
25365;SDS011;13315;48.274;-1.900;2023-10-19T07:05:12;77.60;;;73.40;;
25365;SDS011;13315;48.274;-1.900;2023-10-19T07:07:42;69.88;;;66.18;;
25365;SDS011;13315;48.274;-1.900;2023-10-19T07:10:08;72.97;;;69.15;;
25365;SDS011;13315;48.274;-1.900;2023-10-19T07:15:04;75.65;;;71.55;;
25365;SDS011;13315;48.274;-1.900;2023-10-19T07:17:32;76.97;;;72.90;;
25365;SDS011;13315;48.274;-1.900;2023-10-19T07:19:58;86.28;;;81.78;;
25365;SDS011;13315;48.274;-1.900;2023-10-19T07:22:24;79.97;;;75.57;;
25365;SDS011;13315;48.274;-1.900;2023-10-19T07:24:50;78.07;;;74.07;;
25365;SDS011;13315;48.274;-1.900;2023-10-19T07:27:16;87.32;;;82.75;;
25365;SDS011;13315;48.274;-1.900;2023-10-19T07:29:46;96.03;;;90.57;;
25365;SDS011;13315;48.274;-1.900;2023-10-19T07:32:15;86.47;;;81.97;;
25365;SDS011;13315;48.274;-1.900;2023-10-19T07:34:42;90.57;;;85.78;;
25365;SDS011;13315;48.274;-1.900;2023-10-19T07:37:09;95.45;;;90.43;;
25365;SDS011;13315;48.274;-1.900;2023-10-19T07:39:44;96.65;;;91.53;;
25365;SDS011;13315;48.274;-1.900;2023-10-19T07:42:10;99.57;;;94.10;;
25365;SDS011;13315;48.274;-1.900;2023-10-19T07:44:36;98.82;;;93.53;;
25365;SDS011;13315;48.274;-1.900;2023-10-19T07:47:02;96.95;;;91.80;;
25365;SDS011;13315;48.274;-1.900;2023-10-19T07:49:29;89.03;;;84.38;;
25365;SDS011;13315;48.274;-1.900;2023-10-19T07:51:55;90.32;;;85.57;;
25365;SDS011;13315;48.274;-1.900;2023-10-19T07:54:22;79.45;;;75.35;;
25365;SDS011;13315;48.274;-1.900;2023-10-19T07:56:48;78.22;;;74.22;;
25365;SDS011;13315;48.274;-1.900;2023-10-19T07:59:15;79.25;;;75.15;;
25365;SDS011;13315;48.274;-1.900;2023-10-19T08:01:41;77.63;;;73.57;;
25365;SDS011;13315;48.274;-1.900;2023-10-19T08:04:07;78.18;;;74.13;;
25365;SDS011;13315;48.274;-1.900;2023-10-19T08:06:33;82.75;;;78.35;;
25365;SDS011;13315;48.274;-1.900;2023-10-19T08:09:00;81.88;;;77.47;;
25365;SDS011;13315;48.274;-1.900;2023-10-19T08:11:26;85.45;;;80.95;;
25365;SDS011;13315;48.274;-1.900;2023-10-19T08:13:52;81.20;;;77.00;;
25365;SDS011;13315;48.274;-1.900;2023-10-19T08:16:20;89.70;;;84.45;;
25365;SDS011;13315;48.274;-1.900;2023-10-19T08:18:46;76.53;;;72.53;;
25365;SDS011;13315;48.274;-1.900;2023-10-19T08:21:12;75.05;;;71.22;;
25365;SDS011;13315;48.274;-1.900;2023-10-19T08:23:38;92.15;;;86.90;;
25365;SDS011;13315;48.274;-1.900;2023-10-19T08:26:05;86.78;;;82.18;;
25365;SDS011;13315;48.274;-1.900;2023-10-19T08:28:31;74.07;;;70.18;;
25365;SDS011;13315;48.274;-1.900;2023-10-19T08:30:58;73.38;;;69.53;;
25365;SDS011;13315;48.274;-1.900;2023-10-19T08:33:27;66.53;;;63.00;;
25365;SDS011;13315;48.274;-1.900;2023-10-19T08:35:55;65.10;;;61.67;;
25365;SDS011;13315;48.274;-1.900;2023-10-19T08:38:22;63.72;;;60.28;;
25365;SDS011;13315;48.274;-1.900;2023-10-19T08:40:51;70.45;;;66.78;;
25365;SDS011;13315;48.274;-1.900;2023-10-19T08:43:18;65.07;;;61.38;;
25365;SDS011;13315;48.274;-1.900;2023-10-19T08:45:44;57.90;;;54.80;;
25365;SDS011;13315;48.274;-1.900;2023-10-19T08:48:10;61.78;;;58.28;;
25365;SDS011;13315;48.274;-1.900;2023-10-19T08:50:37;61.15;;;57.83;;
25365;SDS011;13315;48.274;-1.900;2023-10-19T08:53:08;59.67;;;55.92;;
25365;SDS011;13315;48.274;-1.900;2023-10-19T08:55:34;59.55;;;56.35;;
25365;SDS011;13315;48.274;-1.900;2023-10-19T08:58:00;58.22;;;54.80;;
25365;SDS011;13315;48.274;-1.900;2023-10-19T09:00:38;64.47;;;60.58;;
25365;SDS011;13315;48.274;-1.900;2023-10-19T09:03:09;58.22;;;54.70;;
25365;SDS011;13315;48.274;-1.900;2023-10-19T09:05:38;65.05;;;61.33;;
25365;SDS011;13315;48.274;-1.900;2023-10-19T09:08:05;56.78;;;53.20;;
25365;SDS011;13315;48.274;-1.900;2023-10-19T09:10:31;57.33;;;54.00;;
25365;SDS011;13315;48.274;-1.900;2023-10-19T09:15:27;56.78;;;53.33;;
25365;SDS011;13315;48.274;-1.900;2023-10-19T09:17:55;61.05;;;57.25;;
25365;SDS011;13315;48.274;-1.900;2023-10-19T09:20:21;58.47;;;55.17;;
25365;SDS011;13315;48.274;-1.900;2023-10-19T09:22:54;56.20;;;52.88;;
25365;SDS011;13315;48.274;-1.900;2023-10-19T09:25:23;54.13;;;50.97;;
25365;SDS011;13315;48.274;-1.900;2023-10-19T09:27:49;56.13;;;52.58;;
25365;SDS011;13315;48.274;-1.900;2023-10-19T09:30:16;56.17;;;52.97;;
25365;SDS011;13315;48.274;-1.900;2023-10-19T09:32:45;52.83;;;49.35;;
25365;SDS011;13315;48.274;-1.900;2023-10-19T09:35:11;58.00;;;54.10;;
25365;SDS011;13315;48.274;-1.900;2023-10-19T09:37:40;52.25;;;49.17;;
25365;SDS011;13315;48.274;-1.900;2023-10-19T09:40:08;53.30;;;49.47;;
25365;SDS011;13315;48.274;-1.900;2023-10-19T09:42:42;52.25;;;48.80;;
25365;SDS011;13315;48.274;-1.900;2023-10-19T09:45:13;43.45;;;40.63;;
25365;SDS011;13315;48.274;-1.900;2023-10-19T09:47:46;44.60;;;42.15;;
25365;SDS011;13315;48.274;-1.900;2023-10-19T09:50:13;36.92;;;34.63;;
25365;SDS011;13315;48.274;-1.900;2023-10-19T09:52:40;38.97;;;36.95;;
25365;SDS011;13315;48.274;-1.900;2023-10-19T09:55:14;36.30;;;34.10;;
25365;SDS011;13315;48.274;-1.900;2023-10-19T09:58:05;35.47;;;33.33;;
25365;SDS011;13315;48.274;-1.900;2023-10-19T10:00:33;36.00;;;33.95;;
25365;SDS011;13315;48.274;-1.900;2023-10-19T10:02:59;25.30;;;23.90;;
25365;SDS011;13315;48.274;-1.900;2023-10-19T10:15:52;24.00;;;22.63;;
25365;SDS011;13315;48.274;-1.900;2023-10-19T10:18:19;27.48;;;25.88;;
25365;SDS011;13315;48.274;-1.900;2023-10-19T10:20:46;32.00;;;29.48;;
25365;SDS011;13315;48.274;-1.900;2023-10-19T10:23:21;27.17;;;25.23;;
25365;SDS011;13315;48.274;-1.900;2023-10-19T10:25:49;24.33;;;22.23;;
25365;SDS011;13315;48.274;-1.900;2023-10-19T10:28:19;26.92;;;25.38;;
25365;SDS011;13315;48.274;-1.900;2023-10-19T10:33:39;25.70;;;23.98;;
25365;SDS011;13315;48.274;-1.900;2023-10-19T10:36:06;24.20;;;22.55;;
25365;SDS011;13315;48.274;-1.900;2023-10-19T10:38:35;19.58;;;18.15;;
25365;SDS011;13315;48.274;-1.900;2023-10-19T10:41:01;21.50;;;14.95;;
25365;SDS011;13315;48.274;-1.900;2023-10-19T10:43:28;15.68;;;14.43;;
25365;SDS011;13315;48.274;-1.900;2023-10-19T10:46:06;16.33;;;14.68;;
25365;SDS011;13315;48.274;-1.900;2023-10-19T10:48:32;11.05;;;10.45;;
25365;SDS011;13315;48.274;-1.900;2023-10-19T10:51:01;10.77;;;10.07;;
25365;SDS011;13315;48.274;-1.900;2023-10-19T10:53:27;12.63;;;11.55;;
25365;SDS011;13315;48.274;-1.900;2023-10-19T10:55:53;7.88;;;7.47;;
25365;SDS011;13315;48.274;-1.900;2023-10-19T10:58:19;11.93;;;10.70;;
25365;SDS011;13315;48.274;-1.900;2023-10-19T11:00:46;13.38;;;12.50;;
25365;SDS011;13315;48.274;-1.900;2023-10-19T11:03:16;10.27;;;9.57;;
25365;SDS011;13315;48.274;-1.900;2023-10-19T11:05:42;17.13;;;14.68;;
25365;SDS011;13315;48.274;-1.900;2023-10-19T11:08:14;10.48;;;9.77;;
25365;SDS011;13315;48.274;-1.900;2023-10-19T11:10:46;8.15;;;7.50;;
25365;SDS011;13315;48.274;-1.900;2023-10-19T11:13:13;15.10;;;7.10;;
25365;SDS011;13315;48.274;-1.900;2023-10-19T11:15:47;7.65;;;6.10;;
25365;SDS011;13315;48.274;-1.900;2023-10-19T11:18:27;7.35;;;6.85;;
25365;SDS011;13315;48.274;-1.900;2023-10-19T11:20:54;10.18;;;5.60;;
25365;SDS011;13315;48.274;-1.900;2023-10-19T11:23:23;6.10;;;5.75;;
25365;SDS011;13315;48.274;-1.900;2023-10-19T11:25:59;6.13;;;5.50;;
25365;SDS011;13315;48.274;-1.900;2023-10-19T11:28:27;7.38;;;4.63;;
25365;SDS011;13315;48.274;-1.900;2023-10-19T11:31:10;5.68;;;5.20;;
25365;SDS011;13315;48.274;-1.900;2023-10-19T11:33:36;7.97;;;6.22;;
25365;SDS011;13315;48.274;-1.900;2023-10-19T11:36:03;5.20;;;4.80;;
25365;SDS011;13315;48.274;-1.900;2023-10-19T11:38:30;4.32;;;4.13;;
25365;SDS011;13315;48.274;-1.900;2023-10-19T11:40:56;5.55;;;5.25;;
25365;SDS011;13315;48.274;-1.900;2023-10-19T11:43:22;6.13;;;5.65;;
25365;SDS011;13315;48.274;-1.900;2023-10-19T11:45:48;7.55;;;5.95;;
25365;SDS011;13315;48.274;-1.900;2023-10-19T11:48:14;6.05;;;5.75;;
25365;SDS011;13315;48.274;-1.900;2023-10-19T11:50:41;6.20;;;5.90;;
25365;SDS011;13315;48.274;-1.900;2023-10-19T11:53:07;4.47;;;4.28;;
25365;SDS011;13315;48.274;-1.900;2023-10-19T11:55:35;4.47;;;4.22;;
25365;SDS011;13315;48.274;-1.900;2023-10-19T11:58:01;4.50;;;4.20;;
25365;SDS011;13315;48.274;-1.900;2023-10-19T12:00:27;6.70;;;4.53;;
25365;SDS011;13315;48.274;-1.900;2023-10-19T12:03:02;12.13;;;4.88;;
25365;SDS011;13315;48.274;-1.900;2023-10-19T12:05:29;4.78;;;4.53;;
25365;SDS011;13315;48.274;-1.900;2023-10-19T12:07:55;9.07;;;3.85;;
25365;SDS011;13315;48.274;-1.900;2023-10-19T12:10:21;4.72;;;4.53;;
25365;SDS011;13315;48.274;-1.900;2023-10-19T12:12:57;6.95;;;5.05;;
25365;SDS011;13315;48.274;-1.900;2023-10-19T12:15:23;5.22;;;4.82;;
25365;SDS011;13315;48.274;-1.900;2023-10-19T12:17:50;6.45;;;4.75;;
25365;SDS011;13315;48.274;-1.900;2023-10-19T12:20:16;4.15;;;3.90;;
25365;SDS011;13315;48.274;-1.900;2023-10-19T12:22:46;3.97;;;3.78;;
25365;SDS011;13315;48.274;-1.900;2023-10-19T12:25:13;14.68;;;4.90;;
25365;SDS011;13315;48.274;-1.900;2023-10-19T12:27:40;6.35;;;5.75;;
25365;SDS011;13315;48.274;-1.900;2023-10-19T12:30:06;7.72;;;4.47;;
25365;SDS011;13315;48.274;-1.900;2023-10-19T12:32:44;5.93;;;5.35;;
25365;SDS011;13315;48.274;-1.900;2023-10-19T12:35:14;3.30;;;3.20;;
25365;SDS011;13315;48.274;-1.900;2023-10-19T12:37:40;8.85;;;3.42;;
25365;SDS011;13315;48.274;-1.900;2023-10-19T12:40:16;3.30;;;3.10;;
25365;SDS011;13315;48.274;-1.900;2023-10-19T12:42:55;4.90;;;3.00;;
25365;SDS011;13315;48.274;-1.900;2023-10-19T12:45:22;4.45;;;3.65;;
25365;SDS011;13315;48.274;-1.900;2023-10-19T12:47:48;3.40;;;3.08;;
25365;SDS011;13315;48.274;-1.900;2023-10-19T12:50:17;3.58;;;3.28;;
25365;SDS011;13315;48.274;-1.900;2023-10-19T12:52:44;5.15;;;2.80;;
25365;SDS011;13315;48.274;-1.900;2023-10-19T12:55:10;3.40;;;3.20;;
25365;SDS011;13315;48.274;-1.900;2023-10-19T12:57:36;3.30;;;3.10;;
25365;SDS011;13315;48.274;-1.900;2023-10-19T13:00:03;3.65;;;3.35;;
25365;SDS011;13315;48.274;-1.900;2023-10-19T13:02:49;3.50;;;3.30;;
25365;SDS011;13315;48.274;-1.900;2023-10-19T13:05:15;6.28;;;3.55;;
25365;SDS011;13315;48.274;-1.900;2023-10-19T13:07:43;7.70;;;3.28;;
25365;SDS011;13315;48.274;-1.900;2023-10-19T13:10:09;3.25;;;2.95;;
25365;SDS011;13315;48.274;-1.900;2023-10-19T13:12:36;3.92;;;3.72;;
25365;SDS011;13315;48.274;-1.900;2023-10-19T13:15:03;3.50;;;3.30;;
25365;SDS011;13315;48.274;-1.900;2023-10-19T13:17:36;4.90;;;3.35;;
25365;SDS011;13315;48.274;-1.900;2023-10-19T13:20:02;2.92;;;2.83;;
25365;SDS011;13315;48.274;-1.900;2023-10-19T13:25:06;3.25;;;3.05;;
25365;SDS011;13315;48.274;-1.900;2023-10-19T13:27:34;2.88;;;2.78;;
25365;SDS011;13315;48.274;-1.900;2023-10-19T13:30:00;2.70;;;2.60;;
25365;SDS011;13315;48.274;-1.900;2023-10-19T13:32:29;3.10;;;3.00;;
25365;SDS011;13315;48.274;-1.900;2023-10-19T13:34:57;2.70;;;2.60;;
25365;SDS011;13315;48.274;-1.900;2023-10-19T13:37:23;4.32;;;3.10;;
25365;SDS011;13315;48.274;-1.900;2023-10-19T13:39:49;2.85;;;2.75;;
25365;SDS011;13315;48.274;-1.900;2023-10-19T13:42:15;3.30;;;3.20;;
25365;SDS011;13315;48.274;-1.900;2023-10-19T13:44:42;8.20;;;3.35;;
25365;SDS011;13315;48.274;-1.900;2023-10-19T13:47:08;2.60;;;2.50;;
25365;SDS011;13315;48.274;-1.900;2023-10-19T13:52:02;2.70;;;2.60;;
25365;SDS011;13315;48.274;-1.900;2023-10-19T13:54:33;2.45;;;2.35;;
25365;SDS011;13315;48.274;-1.900;2023-10-19T13:57:00;3.00;;;2.90;;
25365;SDS011;13315;48.274;-1.900;2023-10-19T13:59:28;2.85;;;2.75;;
25365;SDS011;13315;48.274;-1.900;2023-10-19T14:01:54;3.00;;;2.90;;
25365;SDS011;13315;48.274;-1.900;2023-10-19T14:04:20;2.75;;;2.65;;
25365;SDS011;13315;48.274;-1.900;2023-10-19T14:06:48;2.80;;;2.70;;
25365;SDS011;13315;48.274;-1.900;2023-10-19T14:09:15;3.20;;;3.00;;
25365;SDS011;13315;48.274;-1.900;2023-10-19T14:11:43;2.72;;;2.63;;
25365;SDS011;13315;48.274;-1.900;2023-10-19T14:14:10;13.73;;;3.05;;
25365;SDS011;13315;48.274;-1.900;2023-10-19T14:16:37;3.60;;;3.35;;
25365;SDS011;13315;48.274;-1.900;2023-10-19T14:19:04;32.28;;;3.55;;
25365;SDS011;13315;48.274;-1.900;2023-10-19T14:21:30;3.03;;;2.80;;
25365;SDS011;13315;48.274;-1.900;2023-10-19T14:23:57;2.30;;;2.20;;
25365;SDS011;13315;48.274;-1.900;2023-10-19T14:26:23;2.75;;;2.63;;
25365;SDS011;13315;48.274;-1.900;2023-10-19T14:28:49;3.80;;;2.85;;
25365;SDS011;13315;48.274;-1.900;2023-10-19T14:31:15;3.00;;;2.90;;
25365;SDS011;13315;48.274;-1.900;2023-10-19T14:33:41;2.85;;;2.65;;
25365;SDS011;13315;48.274;-1.900;2023-10-19T14:36:08;3.42;;;3.10;;
25365;SDS011;13315;48.274;-1.900;2023-10-19T14:38:34;2.55;;;2.40;;
25365;SDS011;13315;48.274;-1.900;2023-10-19T14:41:01;2.80;;;2.70;;
25365;SDS011;13315;48.274;-1.900;2023-10-19T14:43:27;3.30;;;3.20;;
25365;SDS011;13315;48.274;-1.900;2023-10-19T14:45:57;4.80;;;3.78;;
25365;SDS011;13315;48.274;-1.900;2023-10-19T14:48:23;3.33;;;3.13;;
25365;SDS011;13315;48.274;-1.900;2023-10-19T14:50:50;3.13;;;2.92;;
25365;SDS011;13315;48.274;-1.900;2023-10-19T14:53:19;3.00;;;2.90;;